Time;durP1;ratioP1;P1;durP2;ratioP2;P2;SDS_P1;SDS_P2;PMS_P1;PMS_P2;Temp;Humidity;BMP_temperature;BMP_pressure;BME280_temperature;BME280_humidity;BME280_pressure;Samples;Min_cycle;Max_cycle;Signal;HPM_P1;HPM_P2
2022/10/09 00:01:49;;;;;;;9.57;5.00;;;8.90;99.90;;;;;;10450560;28;20276;-78
2022/10/09 00:06:49;;;;;;;8.13;4.73;;;8.80;99.90;;;;;;10451360;28;20219;-77
2022/10/09 00:11:50;;;;;;;14.07;4.80;;;8.80;99.90;;;;;;10450506;28;20234;-76
2022/10/09 00:16:53;;;;;;;9.60;4.47;;;8.70;99.90;;;;;;10449873;28;20597;-77
2022/10/09 00:21:54;;;;;;;9.70;4.67;;;8.70;99.90;;;;;;10451067;28;20234;-76
2022/10/09 00:26:54;;;;;;;6.00;4.07;;;8.70;99.90;;;;;;10450338;28;20249;-78
2022/10/09 00:31:55;;;;;;;6.80;4.03;;;8.60;99.90;;;;;;10450311;28;20226;-78
2022/10/09 00:36:55;;;;;;;8.17;4.47;;;8.60;99.90;;;;;;10449716;28;20231;-75
2022/10/09 00:41:56;;;;;;;7.37;3.97;;;8.60;99.90;;;;;;10449492;28;20306;-76
2022/10/09 00:46:56;;;;;;;5.77;3.67;;;8.60;99.90;;;;;;10449643;28;20224;-75
2022/10/09 00:52:01;;;;;;;6.40;3.50;;;8.60;99.90;;;;;;10448867;28;20732;-76
2022/10/09 00:57:02;;;;;;;5.60;3.57;;;8.50;99.90;;;;;;10448944;28;20228;-75
2022/10/09 01:02:03;;;;;;;5.80;3.20;;;8.50;99.90;;;;;;10449033;28;20783;-76
2022/10/09 01:07:42;;;;;;;6.40;3.57;;;8.40;99.90;;;;;;10448742;28;20652;-75
2022/10/09 01:12:55;;;;;;;7.80;3.53;;;8.30;99.90;;;;;;10442767;28;20232;-76
2022/10/09 01:18:11;;;;;;;6.27;3.43;;;8.20;99.90;;;;;;10448803;28;20262;-74
2022/10/09 01:23:40;;;;;;;6.33;3.43;;;8.20;99.90;;;;;;10448265;28;20257;-75
2022/10/09 01:28:44;;;;;;;6.47;3.87;;;8.10;99.90;;;;;;10449274;28;20226;-76
2022/10/09 01:33:45;;;;;;;7.23;4.13;;;8.10;99.90;;;;;;10447094;28;20228;-78
2022/10/09 01:38:47;;;;;;;9.07;3.43;;;8.00;99.90;;;;;;10447047;28;20219;-78
2022/10/09 01:43:48;;;;;;;6.03;3.67;;;8.00;99.90;;;;;;10446065;28;20273;-78
2022/10/09 01:49:14;;;;;;;4.40;3.13;;;7.90;99.90;;;;;;10462102;28;20284;-77
2022/10/09 01:54:24;;;;;;;6.23;3.17;;;7.80;99.90;;;;;;10447001;28;20222;-76
2022/10/09 01:59:26;;;;;;;6.37;3.80;;;7.70;99.90;;;;;;10439139;28;20222;-78
2022/10/09 02:04:28;;;;;;;7.43;4.10;;;7.60;99.90;;;;;;10446520;28;20223;-75
2022/10/09 02:09:29;;;;;;;9.17;4.97;;;7.60;99.90;;;;;;10446124;28;20792;-77
2022/10/09 02:14:30;;;;;;;6.40;4.30;;;7.60;99.90;;;;;;10446763;28;20231;-77
2022/10/09 02:19:44;;;;;;;9.80;4.53;;;7.60;99.90;;;;;;10445351;28;20234;-78
2022/10/09 02:24:46;;;;;;;8.60;4.20;;;7.50;99.90;;;;;;10446677;28;20702;-77
2022/10/09 02:29:49;;;;;;;12.40;4.33;;;7.50;99.90;;;;;;10446517;28;20220;-78
2022/10/09 02:34:51;;;;;;;8.37;4.13;;;7.50;99.90;;;;;;10446324;28;20224;-78
2022/10/09 02:39:52;;;;;;;8.70;4.47;;;7.40;99.90;;;;;;10445182;28;20266;-77
2022/10/09 02:44:53;;;;;;;5.93;4.20;;;7.40;99.90;;;;;;10446778;28;20220;-78
2022/10/09 02:49:55;;;;;;;7.30;3.93;;;7.40;99.90;;;;;;10445183;28;20212;-76
2022/10/09 02:54:56;;;;;;;7.23;3.97;;;7.40;99.90;;;;;;10446113;28;20274;-77
2022/10/09 02:59:56;;;;;;;7.57;3.30;;;7.30;99.90;;;;;;10447143;28;20240;-75
2022/10/09 03:04:57;;;;;;;7.97;3.60;;;7.30;99.90;;;;;;10451831;28;20816;-75
2022/10/09 03:09:57;;;;;;;9.07;4.10;;;7.20;99.90;;;;;;10451910;28;20223;-75
2022/10/09 03:14:58;;;;;;;6.27;4.27;;;7.20;99.90;;;;;;10451547;28;20244;-74
2022/10/09 03:19:58;;;;;;;9.03;4.23;;;7.30;99.90;;;;;;10452841;28;20687;-76
2022/10/09 03:24:59;;;;;;;7.73;4.60;;;7.40;99.90;;;;;;10452935;28;20219;-76
2022/10/09 03:29:59;;;;;;;9.77;4.80;;;7.50;99.90;;;;;;10451937;28;20302;-75
2022/10/09 03:35:00;;;;;;;9.50;4.90;;;7.50;99.90;;;;;;10453185;28;20333;-77
2022/10/09 03:40:00;;;;;;;9.23;4.90;;;7.40;99.90;;;;;;10453219;28;20215;-76
2022/10/09 03:45:03;;;;;;;13.87;5.30;;;7.50;99.90;;;;;;10451815;28;20223;-74
2022/10/09 03:50:07;;;;;;;8.57;5.13;;;7.40;99.90;;;;;;10451323;28;20228;-74
2022/10/09 03:55:08;;;;;;;8.97;4.90;;;7.40;99.90;;;;;;10448969;28;20243;-74
2022/10/09 04:00:09;;;;;;;10.07;5.80;;;7.30;99.90;;;;;;10450868;28;20558;-78
2022/10/09 04:05:10;;;;;;;8.90;6.00;;;7.30;99.90;;;;;;10450448;28;20184;-76
2022/10/09 04:10:14;;;;;;;11.07;5.30;;;7.20;99.90;;;;;;10449922;28;20737;-76
2022/10/09 04:15:15;;;;;;;8.10;5.13;;;7.20;99.90;;;;;;10449980;28;20693;-77
2022/10/09 04:20:16;;;;;;;8.13;4.77;;;7.20;99.90;;;;;;10450406;28;20267;-76
2022/10/09 04:25:17;;;;;;;9.53;5.10;;;7.20;99.90;;;;;;10450453;28;20195;-77
2022/10/09 04:30:17;;;;;;;8.40;4.67;;;7.20;99.90;;;;;;10449182;28;20196;-74
2022/10/09 04:35:18;;;;;;;12.27;5.73;;;7.20;99.90;;;;;;10448474;28;20613;-76
2022/10/09 04:40:19;;;;;;;10.83;5.73;;;7.20;99.90;;;;;;10449817;28;20601;-76
2022/10/09 04:45:19;;;;;;;8.57;5.60;;;7.20;99.90;;;;;;10449869;28;20184;-77
2022/10/09 04:50:20;;;;;;;9.23;6.10;;;7.20;99.90;;;;;;10448962;28;20233;-76
2022/10/09 04:55:21;;;;;;;9.70;5.73;;;7.20;99.90;;;;;;10463888;28;20215;-75
2022/10/09 05:00:22;;;;;;;8.33;5.63;;;7.20;99.90;;;;;;10449577;28;20184;-75
2022/10/09 05:05:22;;;;;;;7.00;6.00;;;7.10;99.90;;;;;;10446822;28;20191;-74
2022/10/09 05:10:23;;;;;;;11.40;6.93;;;7.10;99.90;;;;;;10424578;28;20195;-75
2022/10/09 05:15:24;;;;;;;11.20;5.87;;;7.00;99.90;;;;;;10404984;28;20898;-77
2022/10/09 05:20:24;;;;;;;16.60;7.37;;;7.00;99.90;;;;;;10421968;28;20294;-74
2022/10/09 05:25:25;;;;;;;9.00;6.20;;;6.90;99.90;;;;;;10398819;28;20223;-76
2022/10/09 05:30:26;;;;;;;12.40;6.90;;;6.90;99.90;;;;;;10404326;28;20228;-76
2022/10/09 05:35:26;;;;;;;8.03;6.30;;;6.80;99.90;;;;;;10404915;28;20227;-77
2022/10/09 05:40:27;;;;;;;9.10;6.83;;;6.80;99.90;;;;;;10406788;28;20220;-78
2022/10/09 05:45:27;;;;;;;7.97;6.00;;;6.80;99.90;;;;;;10406500;28;20231;-78
2022/10/09 05:50:28;;;;;;;9.60;5.33;;;6.90;99.90;;;;;;10405988;28;20683;-77
2022/10/09 05:55:28;;;;;;;9.00;5.63;;;6.90;99.90;;;;;;10404317;28;20220;-74
2022/10/09 06:00:29;;;;;;;13.80;6.13;;;7.00;99.90;;;;;;10406128;28;20220;-75
2022/10/09 06:05:30;;;;;;;9.87;4.90;;;7.10;99.90;;;;;;10404253;28;20234;-77
2022/10/09 06:10:30;;;;;;;11.17;5.40;;;7.30;99.90;;;;;;10417697;28;20226;-75
2022/10/09 06:15:31;;;;;;;7.00;4.30;;;7.40;99.90;;;;;;10405859;28;20228;-75
2022/10/09 06:20:32;;;;;;;7.33;4.30;;;7.50;99.90;;;;;;10421807;28;20258;-76
2022/10/09 06:25:32;;;;;;;6.53;4.40;;;7.70;99.90;;;;;;10406095;28;20233;-78
2022/10/09 06:30:33;;;;;;;5.57;4.00;;;7.80;99.90;;;;;;10410142;28;20223;-77
2022/10/09 06:35:34;;;;;;;8.40;3.80;;;8.00;99.90;;;;;;10450607;28;20228;-78
2022/10/09 06:40:35;;;;;;;5.40;3.83;;;8.20;99.90;;;;;;10454441;28;20250;-77
2022/10/09 06:45:37;;;;;;;6.10;3.87;;;8.40;99.90;;;;;;10445375;28;20226;-77
2022/10/09 06:50:38;;;;;;;5.57;3.27;;;9.00;99.90;;;;;;10453632;28;20591;-78
2022/10/09 06:55:38;;;;;;;4.70;3.27;;;9.20;99.90;;;;;;10454176;28;20234;-76
2022/10/09 07:00:39;;;;;;;7.77;3.67;;;9.40;99.90;;;;;;10453512;28;20269;-73
2022/10/09 07:05:40;;;;;;;5.47;3.00;;;9.60;99.90;;;;;;10451575;28;20987;-75
2022/10/09 07:10:40;;;;;;;5.87;3.57;;;9.80;99.90;;;;;;10451872;28;20220;-76
2022/10/09 07:15:44;;;;;;;4.43;2.90;;;10.20;99.90;;;;;;10450862;28;20242;-76
2022/10/09 07:20:45;;;;;;;6.20;2.90;;;11.80;99.90;;;;;;10452169;28;20836;-74
2022/10/09 07:25:45;;;;;;;4.70;2.50;;;13.00;99.90;;;;;;10452226;28;20210;-68
2022/10/09 07:30:46;;;;;;;4.23;2.57;;;15.70;99.90;;;;;;10445408;28;20679;-68
2022/10/09 07:35:58;;;;;;;3.70;2.50;;;18.00;99.90;;;;;;10451281;28;20313;-71
2022/10/09 07:41:00;;;;;;;6.00;2.23;;;19.10;99.90;;;;;;10451722;28;20219;-71
2022/10/09 07:46:02;;;;;;;4.53;2.60;;;20.30;96.70;;;;;;10449935;28;20219;-69
2022/10/09 07:51:11;;;;;;;5.07;2.63;;;20.60;93.80;;;;;;10450753;28;20220;-68
2022/10/09 07:56:14;;;;;;;4.87;2.50;;;21.00;90.80;;;;;;10448087;28;20219;-69
2022/10/09 08:01:15;;;;;;;3.40;2.50;;;20.50;89.10;;;;;;10450208;28;20227;-72
2022/10/09 08:06:17;;;;;;;5.93;2.50;;;20.90;88.80;;;;;;10449067;28;20717;-74
2022/10/09 08:11:18;;;;;;;6.10;2.83;;;21.50;84.30;;;;;;10448159;28;20295;-73
2022/10/09 08:16:20;;;;;;;2.80;2.30;;;21.90;80.80;;;;;;10450796;28;20224;-74
2022/10/09 08:21:21;;;;;;;5.13;2.30;;;22.40;76.20;;;;;;10449354;28;20233;-74
2022/10/09 08:26:23;;;;;;;3.17;2.33;;;22.50;73.90;;;;;;10450300;28;20286;-74
2022/10/09 08:31:26;;;;;;;5.00;2.47;;;23.10;72.70;;;;;;10449826;28;20763;-74
2022/10/09 08:36:27;;;;;;;7.77;2.90;;;22.90;68.70;;;;;;10430458;28;20586;-74
2022/10/09 08:41:48;;;;;;;3.80;2.53;;;23.00;69.40;;;;;;10448384;28;20235;-73
2022/10/09 08:46:52;;;;;;;3.43;2.60;;;22.80;68.80;;;;;;10446575;28;20579;-73
2022/10/09 08:51:56;;;;;;;5.57;2.30;;;22.00;70.10;;;;;;10450091;28;20244;-74
2022/10/09 08:57:01;;;;;;;3.90;2.53;;;23.10;66.90;;;;;;10439108;28;20306;-73
2022/10/09 09:02:26;;;;;;;7.90;2.63;;;23.00;66.30;;;;;;10421744;28;20229;-73
2022/10/09 09:07:29;;;;;;;7.03;2.70;;;23.30;65.60;;;;;;10398002;28;20815;-73
2022/10/09 09:12:52;;;;;;;4.23;2.33;;;22.50;66.40;;;;;;10427405;28;20232;-73
2022/10/09 09:18:04;;;;;;;4.13;2.60;;;22.60;65.60;;;;;;10414756;28;20214;-74
2022/10/09 09:23:09;;;;;;;5.83;2.97;;;23.20;63.00;;;;;;10406605;28;20227;-74
2022/10/09 09:28:27;;;;;;;5.00;3.00;;;22.70;64.20;;;;;;10405335;28;20309;-75
2022/10/09 09:34:00;;;;;;;4.73;2.30;;;23.30;62.70;;;;;;10402486;28;20255;-74
2022/10/09 09:39:01;;;;;;;3.43;2.50;;;24.10;60.20;;;;;;10401634;28;20300;-73
2022/10/09 09:44:01;;;;;;;4.63;2.43;;;24.70;58.10;;;;;;10437622;28;20221;-72
2022/10/09 09:49:02;;;;;;;6.40;2.80;;;25.40;56.70;;;;;;10444861;28;20263;-73
2022/10/09 09:54:16;;;;;;;3.93;2.57;;;25.00;57.00;;;;;;10444875;28;20225;-72
2022/10/09 09:59:36;;;;;;;4.40;2.40;;;25.00;56.40;;;;;;10446072;28;20584;-72
2022/10/09 10:04:37;;;;;;;4.80;2.47;;;24.50;57.70;;;;;;10438596;28;20220;-73
2022/10/09 10:09:37;;;;;;;5.30;2.23;;;24.50;58.00;;;;;;10448288;28;20215;-73
2022/10/09 10:14:48;;;;;;;5.50;2.57;;;25.10;56.00;;;;;;10453297;28;20225;-73
2022/10/09 10:19:49;;;;;;;4.27;2.20;;;25.20;54.30;;;;;;10454941;28;20225;-72
2022/10/09 10:24:53;;;;;;;4.13;2.13;;;25.50;54.40;;;;;;10454063;28;20227;-72
2022/10/09 10:29:59;;;;;;;6.60;1.70;;;26.30;50.60;;;;;;10455228;28;20219;-73
2022/10/09 10:35:02;;;;;;;6.50;2.10;;;27.20;50.70;;;;;;10453405;28;20265;-73
2022/10/09 10:40:14;;;;;;;3.77;1.90;;;27.20;49.50;;;;;;10451030;28;20307;-72
2022/10/09 10:45:21;;;;;;;2.00;1.80;;;26.10;50.10;;;;;;10450486;28;20222;-71
2022/10/09 10:50:35;;;;;;;3.87;1.60;;;26.60;49.20;;;;;;10453629;28;20194;-72
2022/10/09 10:56:04;;;;;;;3.70;2.13;;;27.70;48.10;;;;;;10446791;28;20231;-71
2022/10/09 11:01:13;;;;;;;2.23;1.90;;;28.50;45.50;;;;;;10452352;28;20828;-70
2022/10/09 11:06:28;;;;;;;4.23;1.70;;;28.80;45.40;;;;;;10452718;28;20208;-72
2022/10/09 11:11:56;;;;;;;3.50;2.10;;;27.30;45.30;;;;;;10442296;28;20233;-71
2022/10/09 11:17:09;;;;;;;6.20;2.63;;;23.00;53.50;;;;;;10448952;28;20230;-71
2022/10/09 11:22:31;;;;;;;5.83;2.07;;;20.10;60.40;;;;;;10450670;28;20223;-71
2022/10/09 11:27:38;;;;;;;5.00;2.03;;;18.30;68.00;;;;;;10452706;28;20704;-71
2022/10/09 11:32:56;;;;;;;2.70;1.60;;;17.70;70.00;;;;;;10450261;28;20305;-71
2022/10/09 11:38:04;;;;;;;3.50;1.73;;;17.40;71.70;;;;;;10451895;28;20212;-71
2022/10/09 11:43:19;;;;;;;5.00;1.73;;;17.20;71.60;;;;;;10451346;28;20227;-70
2022/10/09 11:48:31;;;;;;;3.47;1.60;;;17.10;71.20;;;;;;10451634;28;20230;-71
2022/10/09 11:53:35;;;;;;;3.17;1.47;;;17.10;69.50;;;;;;10444013;28;20227;-70
2022/10/09 11:58:36;;;;;;;3.40;1.70;;;16.90;68.20;;;;;;10449657;28;20238;-72
2022/10/09 12:03:38;;;;;;;3.13;1.40;;;16.90;69.90;;;;;;10451437;28;20766;-70
2022/10/09 12:08:56;;;;;;;2.57;1.27;;;16.70;68.90;;;;;;10449982;28;20666;-71
2022/10/09 12:14:00;;;;;;;2.77;1.50;;;16.70;69.70;;;;;;10448603;28;20227;-70
2022/10/09 12:19:22;;;;;;;2.63;1.30;;;16.50;69.00;;;;;;10451141;28;20220;-70
2022/10/09 12:24:26;;;;;;;4.47;1.17;;;16.40;69.40;;;;;;10449891;28;20589;-71
2022/10/09 12:29:43;;;;;;;3.07;1.47;;;16.50;70.00;;;;;;10449015;28;20645;-71
2022/10/09 12:34:48;;;;;;;1.63;1.17;;;16.50;70.40;;;;;;10449386;28;20216;-71
2022/10/09 12:39:49;;;;;;;2.10;1.67;;;16.40;71.50;;;;;;10448862;28;20934;-71
2022/10/09 12:44:52;;;;;;;3.20;1.70;;;16.60;71.90;;;;;;10448585;28;20303;-71
2022/10/09 12:50:15;;;;;;;3.07;1.63;;;16.70;71.50;;;;;;10450512;28;20227;-71
2022/10/09 12:55:27;;;;;;;2.30;1.13;;;16.70;71.00;;;;;;10447841;28;20231;-71
2022/10/09 13:00:30;;;;;;;2.07;1.47;;;16.70;70.30;;;;;;10440619;28;20746;-71
2022/10/09 13:05:39;;;;;;;6.90;1.70;;;16.70;70.50;;;;;;10448609;28;20870;-71
2022/10/09 13:10:39;;;;;;;3.00;1.33;;;16.80;72.00;;;;;;10447061;28;20591;-71
2022/10/09 13:15:40;;;;;;;1.97;1.20;;;16.90;72.20;;;;;;10447744;28;20236;-71
2022/10/09 13:20:40;;;;;;;2.50;1.57;;;16.80;71.50;;;;;;10446440;28;20287;-71
2022/10/09 13:25:42;;;;;;;4.37;1.50;;;16.70;73.00;;;;;;10448132;28;20219;-71
2022/10/09 13:30:43;;;;;;;4.10;1.63;;;16.90;71.70;;;;;;10447969;28;20247;-70
2022/10/09 13:35:44;;;;;;;3.87;1.77;;;16.90;73.40;;;;;;10445646;28;20234;-70
2022/10/09 13:40:45;;;;;;;2.87;1.70;;;16.80;73.50;;;;;;10447995;28;20303;-71
2022/10/09 13:45:45;;;;;;;3.20;1.63;;;16.70;74.80;;;;;;10445806;28;20216;-70
2022/10/09 13:50:46;;;;;;;3.40;1.90;;;16.70;75.70;;;;;;10447524;28;20311;-70
2022/10/09 13:55:46;;;;;;;3.40;2.03;;;16.70;76.00;;;;;;10447009;28;20232;-71
2022/10/09 14:00:48;;;;;;;5.57;1.80;;;16.80;75.60;;;;;;10447798;28;20212;-70
2022/10/09 14:05:49;;;;;;;3.23;1.87;;;16.80;76.60;;;;;;10447651;28;20251;-70
2022/10/09 14:10:49;;;;;;;4.33;1.83;;;16.80;77.90;;;;;;10445530;28;20258;-70
2022/10/09 14:15:51;;;;;;;2.27;1.80;;;16.80;77.50;;;;;;10444600;28;20231;-70
2022/10/09 14:20:52;;;;;;;3.37;1.63;;;16.80;78.30;;;;;;10444382;28;20223;-71
2022/10/09 14:25:52;;;;;;;3.83;2.00;;;16.70;78.50;;;;;;10443007;28;20310;-70
2022/10/09 14:30:54;;;;;;;3.77;1.80;;;16.70;78.80;;;;;;10443865;28;20236;-71
2022/10/09 14:35:55;;;;;;;3.13;1.83;;;16.70;79.40;;;;;;10440929;28;20666;-70
2022/10/09 14:40:55;;;;;;;3.13;1.57;;;16.80;79.90;;;;;;10412709;28;20294;-69
2022/10/09 14:46:11;;;;;;;2.90;1.70;;;16.80;79.70;;;;;;10443473;28;20675;-71
2022/10/09 14:51:18;;;;;;;4.20;1.80;;;16.80;79.00;;;;;;10445837;28;20243;-72
2022/10/09 14:56:19;;;;;;;2.83;1.80;;;16.70;79.90;;;;;;10448620;28;20224;-70
2022/10/09 15:01:22;;;;;;;3.20;1.80;;;16.70;80.00;;;;;;10453793;28;20298;-70
2022/10/09 15:06:23;;;;;;;4.07;1.77;;;16.60;80.30;;;;;;10452993;28;20232;-70
2022/10/09 15:11:23;;;;;;;2.83;1.67;;;16.60;81.20;;;;;;10453670;28;20227;-69
2022/10/09 15:16:25;;;;;;;3.37;1.47;;;16.50;81.20;;;;;;10452712;28;20712;-71
2022/10/09 15:21:28;;;;;;;3.77;1.70;;;16.50;81.90;;;;;;10453164;28;20265;-71
2022/10/09 15:26:31;;;;;;;2.30;1.70;;;16.30;82.50;;;;;;10447519;28;20216;-71
2022/10/09 15:31:37;;;;;;;3.47;2.03;;;16.30;82.70;;;;;;10444603;28;20300;-70
2022/10/09 15:36:38;;;;;;;1.70;1.43;;;16.30;83.30;;;;;;10426145;28;20305;-70
2022/10/09 15:41:40;;;;;;;2.67;1.67;;;16.20;83.70;;;;;;10424429;28;20216;-71
2022/10/09 15:46:41;;;;;;;3.50;1.33;;;16.20;84.50;;;;;;10450973;28;20288;-70
2022/10/09 15:51:42;;;;;;;4.67;2.07;;;16.10;84.50;;;;;;10450798;28;20220;-69
2022/10/09 15:56:43;;;;;;;3.57;1.97;;;16.00;85.30;;;;;;10450306;28;20247;-70
2022/10/09 16:01:43;;;;;;;2.43;1.67;;;16.00;85.70;;;;;;10449230;28;20217;-70
2022/10/09 16:06:45;;;;;;;6.60;1.83;;;15.90;86.50;;;;;;10447314;28;20225;-70
2022/10/09 16:11:45;;;;;;;2.97;1.60;;;15.70;87.70;;;;;;10445891;28;20225;-70
2022/10/09 16:16:47;;;;;;;2.83;1.70;;;15.60;88.80;;;;;;10449438;28;20243;-71
2022/10/09 16:21:48;;;;;;;3.20;1.93;;;15.50;89.90;;;;;;10449980;28;20213;-71
2022/10/09 16:26:49;;;;;;;3.03;1.73;;;15.40;90.40;;;;;;10450306;28;20228;-71
2022/10/09 16:31:50;;;;;;;4.33;1.97;;;15.30;90.70;;;;;;10448478;28;20237;-71
2022/10/09 16:36:51;;;;;;;2.70;2.00;;;15.20;91.20;;;;;;10449301;28;20216;-71
2022/10/09 16:41:51;;;;;;;5.97;2.40;;;15.00;91.60;;;;;;10452659;28;20228;-71
2022/10/09 16:46:52;;;;;;;2.57;1.93;;;14.90;92.20;;;;;;10441259;28;20227;-72
2022/10/09 16:51:52;;;;;;;3.57;2.10;;;14.70;92.60;;;;;;10421187;28;21013;-71
2022/10/09 16:56:53;;;;;;;5.33;2.07;;;14.60;93.10;;;;;;10407237;28;20309;-72
2022/10/09 17:01:55;;;;;;;3.10;2.00;;;14.30;93.90;;;;;;10422535;28;20220;-70
2022/10/09 17:06:56;;;;;;;2.70;2.00;;;14.10;94.90;;;;;;10449418;28;20254;-70
2022/10/09 17:11:57;;;;;;;4.53;2.83;;;13.80;96.10;;;;;;10450383;28;20251;-71
2022/10/09 17:16:58;;;;;;;4.83;3.07;;;13.70;97.30;;;;;;10437909;28;20291;-73
2022/10/09 17:22:00;;;;;;;4.30;2.90;;;13.50;98.60;;;;;;10405188;28;20221;-74
2022/10/09 17:27:03;;;;;;;4.80;3.00;;;13.30;99.90;;;;;;10406294;28;20221;-74
2022/10/09 17:32:06;;;;;;;10.30;3.97;;;13.20;99.90;;;;;;10404357;28;20236;-73
2022/10/09 17:37:07;;;;;;;7.43;4.23;;;13.00;99.90;;;;;;10406000;28;20224;-73
2022/10/09 17:42:08;;;;;;;7.87;4.53;;;12.90;99.90;;;;;;10405337;28;20228;-73
2022/10/09 17:47:11;;;;;;;6.63;4.73;;;12.80;99.90;;;;;;10405564;28;20224;-74
2022/10/09 17:52:12;;;;;;;8.37;5.03;;;12.70;99.90;;;;;;10403642;28;20228;-73
2022/10/09 17:57:13;;;;;;;7.17;4.63;;;12.60;99.90;;;;;;10404858;28;20236;-74
2022/10/09 18:02:13;;;;;;;5.07;3.23;;;12.60;99.90;;;;;;10404629;28;20309;-73
2022/10/09 18:07:18;;;;;;;8.83;4.33;;;12.70;99.90;;;;;;10403926;28;20220;-73
2022/10/09 18:12:19;;;;;;;6.57;4.80;;;12.60;99.90;;;;;;10403268;28;20224;-73
2022/10/09 18:17:19;;;;;;;6.30;4.60;;;12.50;99.90;;;;;;10402686;28;20247;-74
2022/10/09 18:22:20;;;;;;;7.20;3.50;;;12.30;99.90;;;;;;10421457;28;20251;-73
2022/10/09 18:27:22;;;;;;;4.17;3.10;;;12.30;99.90;;;;;;10445783;28;20212;-74
2022/10/09 18:32:24;;;;;;;3.97;2.77;;;12.30;99.90;;;;;;10452411;28;20222;-74
2022/10/09 18:37:25;;;;;;;4.00;3.40;;;12.20;99.90;;;;;;10454416;28;20342;-74
2022/10/09 18:42:25;;;;;;;3.30;3.00;;;12.10;99.90;;;;;;10457587;28;20316;-74
2022/10/09 18:47:29;;;;;;;4.47;3.00;;;12.00;99.90;;;;;;10460972;28;20278;-74
2022/10/09 18:52:29;;;;;;;4.97;2.90;;;12.00;99.90;;;;;;10445700;28;20219;-74
2022/10/09 18:57:32;;;;;;;5.33;3.53;;;12.00;99.90;;;;;;10454137;28;20286;-74
2022/10/09 19:02:32;;;;;;;5.97;4.10;;;11.90;99.90;;;;;;10453838;28;20254;-74
2022/10/09 19:07:33;;;;;;;6.53;4.07;;;11.70;99.90;;;;;;10452451;28;20278;-74
2022/10/09 19:12:34;;;;;;;6.70;4.13;;;11.60;99.90;;;;;;10453184;28;20235;-74
2022/10/09 19:17:37;;;;;;;4.37;3.50;;;11.40;99.90;;;;;;10452151;28;20235;-74
2022/10/09 19:22:39;;;;;;;5.63;3.50;;;11.30;99.90;;;;;;10452159;28;20223;-74
2022/10/09 19:27:39;;;;;;;5.10;3.40;;;11.30;99.90;;;;;;10451629;28;20251;-74
2022/10/09 19:32:40;;;;;;;5.73;3.73;;;11.20;99.90;;;;;;10449389;28;20715;-74
2022/10/09 19:37:40;;;;;;;4.80;3.47;;;11.10;99.90;;;;;;10451629;28;20729;-75
2022/10/09 19:42:41;;;;;;;4.20;3.37;;;11.00;99.90;;;;;;10450385;28;20232;-74
2022/10/09 19:47:42;;;;;;;6.40;3.97;;;10.90;99.90;;;;;;10449588;28;20211;-74
2022/10/09 19:52:46;;;;;;;7.93;3.00;;;10.90;99.90;;;;;;10450505;28;20219;-74
2022/10/09 19:57:46;;;;;;;5.10;3.20;;;10.90;99.90;;;;;;10449689;28;20223;-73
2022/10/09 20:02:47;;;;;;;4.13;2.63;;;11.30;99.90;;;;;;10448856;28;20219;-74
2022/10/09 20:07:48;;;;;;;5.70;2.53;;;11.60;99.90;;;;;;10448737;28;20761;-74
2022/10/09 20:12:49;;;;;;;2.97;2.40;;;11.70;99.90;;;;;;10448552;28;20227;-73
2022/10/09 20:17:49;;;;;;;9.37;3.30;;;11.80;99.90;;;;;;10450377;28;20219;-74
2022/10/09 20:22:50;;;;;;;5.37;2.70;;;11.80;99.90;;;;;;10451107;28;20306;-75
2022/10/09 20:27:50;;;;;;;5.30;2.60;;;11.80;99.90;;;;;;10447117;28;20291;-76
2022/10/09 20:32:51;;;;;;;2.97;2.27;;;11.90;99.90;;;;;;10448276;28;20558;-75
2022/10/09 20:37:52;;;;;;;6.17;2.40;;;11.90;99.90;;;;;;10448214;28;20216;-75
2022/10/09 20:42:52;;;;;;;5.43;2.27;;;11.90;99.90;;;;;;10448496;28;20214;-75
2022/10/09 20:47:53;;;;;;;4.40;2.00;;;11.80;99.90;;;;;;10448221;28;20753;-75
2022/10/09 20:52:53;;;;;;;2.63;1.93;;;11.90;99.90;;;;;;10448630;28;20262;-74
2022/10/09 20:57:54;;;;;;;3.67;1.63;;;12.00;99.90;;;;;;10449202;28;20219;-75
2022/10/09 21:02:55;;;;;;;3.30;1.60;;;12.00;99.90;;;;;;10447310;28;20204;-75
2022/10/09 21:07:55;;;;;;;3.13;2.07;;;12.00;99.90;;;;;;10443420;28;20218;-75
2022/10/09 21:12:56;;;;;;;3.73;1.90;;;12.10;99.90;;;;;;10447026;28;20219;-75
2022/10/09 21:17:57;;;;;;;1.73;1.50;;;12.10;99.90;;;;;;10446452;28;20293;-73
2022/10/09 21:22:57;;;;;;;2.67;1.83;;;12.20;99.90;;;;;;10448189;28;20216;-75
2022/10/09 21:28:01;;;;;;;3.43;1.77;;;12.20;99.90;;;;;;10446237;28;20219;-75
2022/10/09 21:33:08;;;;;;;1.93;1.50;;;12.10;99.90;;;;;;10448178;28;20216;-74
2022/10/09 21:38:12;;;;;;;5.07;2.30;;;12.10;99.90;;;;;;10448008;28;20335;-74
2022/10/09 21:43:12;;;;;;;4.23;1.90;;;12.10;99.90;;;;;;10447581;28;20231;-73
2022/10/09 21:48:15;;;;;;;4.00;2.00;;;12.00;99.90;;;;;;10445893;28;20243;-75
2022/10/09 21:53:16;;;;;;;3.30;1.57;;;12.00;99.90;;;;;;10446689;28;20259;-76
2022/10/09 21:58:16;;;;;;;4.43;1.70;;;11.90;99.90;;;;;;10446686;28;20638;-77
2022/10/09 22:03:17;;;;;;;4.60;1.70;;;12.00;99.90;;;;;;10446397;28;20311;-75
2022/10/09 22:08:18;;;;;;;8.60;2.30;;;11.90;99.90;;;;;;10454455;28;20223;-76
2022/10/09 22:13:20;;;;;;;4.50;2.00;;;11.90;99.90;;;;;;10455914;28;20311;-74
2022/10/09 22:18:20;;;;;;;3.10;2.10;;;11.90;99.90;;;;;;10453816;28;20784;-74
2022/10/09 22:23:21;;;;;;;4.47;1.83;;;11.80;99.90;;;;;;10454479;28;20307;-75
2022/10/09 22:28:22;;;;;;;1.70;1.60;;;11.80;99.90;;;;;;10455086;28;20208;-74
2022/10/09 22:33:22;;;;;;;4.10;1.80;;;11.70;99.90;;;;;;10454050;28;20219;-74
2022/10/09 22:38:23;;;;;;;2.27;1.70;;;11.60;99.90;;;;;;10452196;28;20289;-75
2022/10/09 22:43:23;;;;;;;5.27;2.03;;;11.40;99.90;;;;;;10453820;28;20273;-75
2022/10/09 22:48:24;;;;;;;5.07;1.73;;;11.20;99.90;;;;;;10453588;28;20261;-75
2022/10/09 22:53:25;;;;;;;3.90;2.00;;;11.10;99.90;;;;;;10451111;28;20804;-74
2022/10/09 22:58:25;;;;;;;5.53;2.50;;;11.00;99.90;;;;;;10452688;28;20265;-75
2022/10/09 23:03:26;;;;;;;4.97;2.30;;;10.90;99.90;;;;;;10451734;28;20208;-74
2022/10/09 23:08:27;;;;;;;4.03;2.40;;;10.90;99.90;;;;;;10452707;28;20227;-75
2022/10/09 23:13:27;;;;;;;4.57;2.47;;;10.80;99.90;;;;;;10453117;28;20734;-74
2022/10/09 23:18:28;;;;;;;4.47;2.70;;;10.70;99.90;;;;;;10452462;28;20632;-74
2022/10/09 23:23:30;;;;;;;5.87;2.90;;;10.60;99.90;;;;;;10444593;28;20299;-72
2022/10/09 23:28:30;;;;;;;2.63;2.30;;;10.60;99.90;;;;;;10452169;28;20262;-73
2022/10/09 23:33:31;;;;;;;4.33;2.30;;;10.60;99.90;;;;;;10450955;28;20319;-72
2022/10/09 23:38:33;;;;;;;5.97;2.53;;;10.50;99.90;;;;;;10450849;28;20214;-72
2022/10/09 23:43:35;;;;;;;3.43;2.30;;;10.40;99.90;;;;;;10451914;28;20307;-74
2022/10/09 23:48:36;;;;;;;5.27;2.20;;;10.40;99.90;;;;;;10450935;28;20250;-75
2022/10/09 23:53:40;;;;;;;2.83;2.10;;;10.40;99.90;;;;;;10451493;28;20650;-71
2022/10/09 23:58:41;;;;;;;4.27;2.30;;;10.40;99.90;;;;;;10449736;28;20220;-72
